createdAt,value
2022-09-17T07:27:04.064Z,96137.72
2022-09-17T07:29:32.433Z,96126.47
2022-09-17T07:32:00.253Z,96140.91
2022-09-17T07:34:29.225Z,96129.34
2022-09-17T07:36:57.079Z,96139.25
2022-09-17T07:39:24.746Z,96152.06
2022-09-17T07:41:52.544Z,96148.50
2022-09-17T07:44:22.229Z,96142.53
2022-09-17T07:46:50.023Z,96150.03
2022-09-17T07:49:18.049Z,96145.13
2022-09-17T07:51:45.738Z,96137.34
2022-09-17T07:54:13.506Z,96117.81
2022-09-17T07:56:41.314Z,96120.41
2022-09-17T07:59:09.739Z,96117.19
2022-09-17T08:01:37.566Z,96113.47
2022-09-17T08:04:06.084Z,96121.97
2022-09-17T08:06:36.889Z,96111.91
2022-09-17T08:09:04.725Z,96118.84
2022-09-17T08:14:20.198Z,96130.84
2022-09-17T08:16:48.206Z,96124.34
2022-09-17T08:19:17.909Z,96148.47
2022-09-17T08:21:45.647Z,96147.38
2022-09-17T08:24:13.464Z,96144.97
2022-09-17T08:26:41.570Z,96133.47
2022-09-17T08:29:10.573Z,96137.41
2022-09-17T09:06:16.552Z,96128.41
2022-09-17T09:08:54.652Z,96122.38
2022-09-17T09:11:27.834Z,96108.56
2022-09-17T09:14:07.172Z,96130.34
2022-09-17T09:16:35.184Z,96116.06
2022-09-17T09:19:32.816Z,96126.63
2022-09-17T09:22:29.135Z,96114.97
2022-09-17T09:25:18.171Z,96113.63
2022-09-17T09:28:00.899Z,96102.22
2022-09-17T09:30:31.486Z,96112.56
2022-09-17T09:33:00.621Z,96096.97
2022-09-17T09:35:29.874Z,96101.22
2022-09-17T09:37:57.695Z,96094.88
2022-09-17T09:40:31.250Z,96080.06
2022-09-17T09:43:01.735Z,96087.06
2022-09-17T09:45:49.481Z,96102.53
2022-09-17T09:48:49.246Z,96113.66
2022-09-17T09:51:35.177Z,96091.34
2022-09-17T09:54:12.023Z,96096.66
2022-09-17T09:56:58.770Z,96080.19
2022-09-17T09:59:26.946Z,96083.94
2022-09-17T10:01:54.936Z,96082.59
2022-09-17T10:04:26.939Z,96097.47
2022-09-17T10:07:08.367Z,96095.06
2022-09-17T10:09:37.973Z,96094.34
2022-09-17T10:12:08.958Z,96079.16
2022-09-17T10:14:46.061Z,96083.59
2022-09-17T10:17:17.027Z,96075.66
2022-09-17T10:19:45.299Z,96075.91
2022-09-17T10:22:38.783Z,96095.66
2022-09-17T10:25:27.698Z,96085.78
2022-09-17T10:27:55.818Z,96071.34
2022-09-17T10:30:24.931Z,96076.97
2022-09-17T10:33:14.608Z,96082.34
2022-09-17T10:36:01.779Z,96074.38
2022-09-17T10:38:33.802Z,96084.28
2022-09-17T10:41:18.049Z,96063.13
2022-09-17T10:43:46.066Z,96061.06
2022-09-17T10:46:28.047Z,96054.16
2022-09-17T10:48:58.943Z,96045.44
2022-09-17T10:51:26.723Z,96044.78
2022-09-17T10:54:03.537Z,96028.97
2022-09-17T10:56:37.172Z,96015.69
2022-09-17T10:59:33.509Z,96038.72
2022-09-17T11:02:43.635Z,96037.38
2022-09-17T11:05:27.899Z,96044.97
2022-09-17T11:07:58.177Z,96041.56
2022-09-17T11:10:33.277Z,96036.03
2022-09-17T11:13:17.591Z,96031.91
2022-09-17T11:16:14.458Z,96038.19
2022-09-17T11:19:00.360Z,96033.78
2022-09-17T11:21:38.465Z,96022.75
2022-09-17T11:24:28.245Z,96006.59
2022-09-17T11:27:14.725Z,96030.56
2022-09-17T11:29:54.186Z,96026.13
2022-09-17T11:32:40.569Z,96022.19
2022-09-17T11:35:15.953Z,95996.75
2022-09-17T11:37:51.824Z,95991.88
2022-09-17T11:40:43.654Z,95955.53
2022-09-17T11:43:31.895Z,95981.75
2022-09-17T11:46:16.027Z,95940.91
2022-09-17T11:48:46.795Z,95944.47
2022-09-17T11:51:28.248Z,95943.78
2022-09-17T11:54:28.891Z,95939.63
2022-09-17T11:57:09.995Z,95944.88
2022-09-17T11:59:48.010Z,95951.66
2022-09-17T12:02:39.364Z,95961.66
2022-09-17T12:05:18.058Z,95955.31
2022-09-17T12:07:48.729Z,95943.13
2022-09-17T12:10:34.985Z,95934.25
2022-09-17T12:13:05.809Z,95927.50
2022-09-17T12:15:35.160Z,95905.72
2022-09-17T12:18:32.141Z,95913.47
2022-09-17T12:21:02.115Z,95909.66
2022-09-17T12:23:40.481Z,95912.38
2022-09-17T12:26:12.515Z,95910.47
2022-09-17T12:29:02.893Z,95894.47
2022-09-17T12:31:33.229Z,95904.91
2022-09-17T12:34:43.110Z,95928.03
2022-09-17T12:37:40.311Z,95914.47
2022-09-17T12:40:08.534Z,95910.09
2022-09-17T12:42:54.309Z,95898.44
2022-09-17T12:45:37.571Z,95898.91
2022-09-17T12:48:15.306Z,95901.78
2022-09-17T12:51:07.450Z,95880.09
2022-09-17T12:53:43.242Z,95873.03
2022-09-17T12:56:16.823Z,95882.34
2022-09-17T12:58:56.747Z,95884.56
2022-09-17T13:01:33.267Z,95879.91
2022-09-17T13:04:11.940Z,95886.16
2022-09-17T13:06:55.522Z,95881.28
2022-09-17T13:09:30.449Z,95877.78
2022-09-17T13:12:12.179Z,95886.66
2022-09-17T13:14:53.804Z,95896.75
2022-09-17T13:18:12.431Z,95900.88
2022-09-17T13:21:00.006Z,95888.25
2022-09-17T13:23:44.033Z,95881.28
2022-09-17T13:26:13.586Z,95886.97
2022-09-17T13:29:00.360Z,95889.81
2022-09-17T13:31:51.494Z,95882.72
2022-09-17T13:34:19.385Z,95886.63
2022-09-17T13:36:51.333Z,95879.56
2022-09-17T13:39:44.018Z,95859.41
2022-09-17T13:42:30.667Z,95860.75
2022-09-17T13:45:08.780Z,95869.50
2022-09-17T13:47:59.951Z,95838.28
2022-09-17T13:50:35.181Z,95860.44
2022-09-17T13:53:17.098Z,95866.66
2022-09-17T13:55:52.297Z,95867.38
2022-09-17T13:58:20.211Z,95870.50
2022-09-17T14:00:51.376Z,95867.69
2022-09-17T14:03:31.510Z,95872.41
2022-09-17T14:06:26.766Z,95882.78
2022-09-17T14:08:55.626Z,95876.81
2022-09-17T14:11:23.467Z,95881.81
2022-09-17T14:13:55.317Z,95873.97
2022-09-17T14:16:35.813Z,95872.47
2022-09-17T14:19:16.059Z,95884.09
2022-09-17T14:21:46.498Z,95873.78
2022-09-17T14:24:23.593Z,95893.66
2022-09-17T14:27:20.629Z,95891.38
2022-09-17T14:29:58.261Z,95886.63
2022-09-17T14:32:52.643Z,95885.13
2022-09-17T14:35:23.216Z,95883.53
2022-09-17T14:37:59.077Z,95901.97
2022-09-17T14:40:27.221Z,95886.94
2022-09-17T14:42:56.964Z,95913.19
2022-09-17T14:45:29.976Z,95919.22
2022-09-17T14:48:29.964Z,95945.75
2022-09-17T14:51:19.831Z,95945.00
2022-09-17T14:54:06.085Z,95947.75
2022-09-17T14:56:34.831Z,95948.97
2022-09-17T14:59:02.426Z,95954.16
2022-09-17T15:01:30.570Z,95953.09
2022-09-17T15:04:13.491Z,95952.91
2022-09-17T15:06:41.907Z,95947.38
2022-09-17T15:09:17.203Z,95935.28
2022-09-17T15:11:48.019Z,95942.41
2022-09-17T15:14:23.961Z,95944.66
2022-09-17T15:16:56.475Z,95979.25
2022-09-17T15:19:33.564Z,95962.03
2022-09-17T15:22:13.775Z,95979.47
2022-09-17T15:24:45.010Z,95975.19
2022-09-17T15:27:29.692Z,95958.94
2022-09-17T15:30:06.014Z,95964.78
2022-09-17T15:32:33.775Z,95953.69
2022-09-17T15:35:30.255Z,95986.63
2022-09-17T15:38:22.847Z,95979.22
2022-09-17T15:40:51.941Z,96003.56
2022-09-17T15:43:29.840Z,95990.78
2022-09-17T15:46:00.828Z,96007.09
2022-09-17T15:48:28.668Z,96024.16
2022-09-17T15:51:00.263Z,96028.09
2022-09-17T15:53:31.874Z,96045.59
2022-09-17T15:56:14.205Z,96039.34
2022-09-17T15:58:43.123Z,96048.66
2022-09-17T16:01:16.975Z,96059.09
2022-09-17T16:03:45.088Z,96049.88
2022-09-17T16:06:19.171Z,96053.19
2022-09-17T16:08:47.773Z,96057.47
2022-09-17T16:11:22.592Z,96058.53
2022-09-17T16:13:50.794Z,96065.41
2022-09-17T16:16:20.201Z,96070.84
2022-09-17T16:18:48.625Z,96077.00
2022-09-17T16:21:17.823Z,96078.69
2022-09-17T16:23:45.897Z,96080.88
2022-09-17T16:26:21.969Z,96073.47
2022-09-17T16:28:53.768Z,96072.97
2022-09-17T16:31:24.365Z,96064.72
2022-09-17T16:33:55.137Z,96059.75
2022-09-17T16:36:22.976Z,96059.28
2022-09-17T16:38:50.789Z,96047.09
2022-09-17T16:41:18.479Z,96064.75
2022-09-17T16:43:46.551Z,96089.28
2022-09-17T16:46:14.397Z,96130.84
2022-09-17T16:48:44.459Z,96135.41
2022-09-17T16:51:12.863Z,96150.94
2022-09-17T16:53:40.829Z,96190.75
2022-09-17T16:56:13.352Z,96200.44
2022-09-17T16:58:41.912Z,96198.94
2022-09-17T17:01:13.714Z,96198.13
2022-09-17T17:03:41.873Z,96210.50
2022-09-17T17:06:19.570Z,96217.47
2022-09-17T17:08:47.682Z,96221.81
2022-09-17T17:11:15.305Z,96253.88
2022-09-17T17:13:43.395Z,96242.09
2022-09-17T17:16:12.606Z,96246.06
2022-09-17T17:18:44.281Z,96244.28
2022-09-17T17:21:12.817Z,96204.53
2022-09-17T17:23:43.521Z,96246.09
2022-09-17T17:26:11.186Z,96241.38
2022-09-17T17:28:38.923Z,96248.94
2022-09-17T17:31:06.901Z,96245.34
2022-09-17T17:33:34.840Z,96252.00
2022-09-17T17:36:08.210Z,96259.81
2022-09-17T17:38:37.015Z,96268.31
2022-09-17T17:41:10.449Z,96288.72
2022-09-17T17:43:38.469Z,96300.94
2022-09-17T17:46:10.435Z,96303.81
2022-09-17T17:48:38.395Z,96317.78
2022-09-17T17:51:07.962Z,96307.81
2022-09-17T17:53:36.199Z,96316.97
2022-09-17T17:56:06.099Z,96313.56
2022-09-17T17:58:34.384Z,96303.06
2022-09-17T18:01:20.682Z,96326.66
2022-09-17T18:03:48.498Z,96308.56
2022-09-17T18:06:16.309Z,96341.28
2022-09-17T18:08:44.932Z,96351.81
2022-09-17T18:11:14.881Z,96366.47
2022-09-17T18:13:42.714Z,96364.13
2022-09-17T18:16:14.523Z,96369.97
2022-09-17T18:18:44.902Z,96373.66
2022-09-17T18:21:17.727Z,96400.19
2022-09-17T18:23:45.831Z,96390.13
2022-09-17T18:26:17.850Z,96394.34
2022-09-17T18:28:45.590Z,96411.19
2022-09-17T18:31:27.119Z,96422.97
2022-09-17T18:34:02.679Z,96429.03
